createdAt,value
2018-04-19T00:00:27.611Z,23.86
2018-04-19T00:01:27.605Z,23.81
2018-04-19T00:02:27.603Z,23.81
2018-04-19T00:03:48.601Z,23.76
2018-04-19T00:04:27.587Z,23.76
2018-04-19T00:05:27.583Z,23.82
2018-04-19T00:06:27.577Z,23.84
2018-04-19T00:07:27.577Z,23.71
2018-04-19T00:08:27.566Z,23.86
2018-04-19T00:09:48.569Z,23.71
2018-04-19T00:10:27.556Z,23.76
2018-04-19T00:11:27.562Z,23.77
2018-04-19T00:12:27.543Z,23.77
2018-04-19T00:13:27.537Z,23.73
2018-04-19T00:14:27.534Z,23.79
2018-04-19T00:15:48.545Z,23.79
2018-04-19T00:16:27.526Z,23.85
2018-04-19T00:17:27.521Z,23.73
2018-04-19T00:18:27.516Z,23.82
2018-04-19T00:19:27.507Z,23.81
2018-04-19T00:20:27.505Z,23.73
2018-04-19T00:21:48.504Z,23.76
2018-04-19T00:22:27.495Z,23.84
2018-04-19T00:23:27.486Z,23.77
2018-04-19T00:24:27.489Z,23.76
2018-04-19T00:25:27.478Z,23.77
2018-04-19T00:26:27.472Z,23.81
2018-04-19T00:27:48.474Z,23.79
2018-04-19T00:28:27.461Z,23.86
2018-04-19T00:29:27.458Z,23.86
2018-04-19T00:30:27.450Z,23.73
2018-04-19T00:31:27.447Z,23.73
2018-04-19T00:32:27.439Z,23.70
2018-04-19T00:33:48.442Z,23.76
2018-04-19T00:34:27.459Z,23.73
2018-04-19T00:35:27.423Z,23.69
2018-04-19T00:36:27.420Z,23.70
2018-04-19T00:37:27.414Z,23.70
2018-04-19T00:38:27.408Z,23.73
2018-04-19T00:39:48.409Z,23.76
2018-04-19T00:40:27.399Z,23.71
2018-04-19T00:41:27.431Z,23.69
2018-04-19T00:42:27.388Z,23.79
2018-04-19T00:43:27.384Z,23.70
2018-04-19T00:44:27.376Z,23.69
2018-04-19T00:45:48.416Z,23.71
2018-04-19T00:46:27.372Z,23.69
2018-04-19T00:47:27.363Z,23.70
2018-04-19T00:48:27.358Z,23.73
2018-04-19T00:49:27.347Z,23.69
2018-04-19T00:50:27.347Z,23.84
2018-04-19T00:51:48.363Z,23.81
2018-04-19T00:52:27.342Z,23.73
2018-04-19T00:53:27.342Z,23.81
2018-04-19T00:54:27.324Z,23.77
2018-04-19T00:55:27.326Z,23.67
2018-04-19T00:56:27.316Z,23.74
2018-04-19T00:57:48.316Z,23.67
2018-04-19T00:58:27.302Z,23.71
2018-04-19T00:59:27.299Z,23.67
2018-04-19T01:00:27.295Z,23.71
2018-04-19T01:01:27.289Z,23.73
2018-04-19T01:02:27.284Z,23.70
2018-04-19T01:03:48.285Z,23.76
2018-04-19T01:04:27.272Z,23.73
2018-04-19T01:05:27.268Z,23.73
2018-04-19T01:06:27.269Z,23.64
2018-04-19T01:07:27.257Z,23.66
2018-04-19T01:08:27.257Z,23.73
2018-04-19T01:09:48.260Z,23.67
2018-04-19T01:10:27.240Z,23.73
2018-04-19T01:11:27.235Z,23.79
2018-04-19T01:12:27.232Z,23.71
2018-04-19T01:13:27.225Z,23.62
2018-04-19T01:14:27.220Z,23.66
2018-04-19T01:15:48.223Z,23.70
2018-04-19T01:16:27.217Z,23.63
2018-04-19T01:17:27.204Z,23.69
2018-04-19T01:18:27.201Z,23.70
2018-04-19T01:19:27.192Z,23.73
2018-04-19T01:20:27.189Z,23.67
2018-04-19T01:21:48.188Z,23.64
2018-04-19T01:22:27.179Z,23.69
2018-04-19T01:23:27.173Z,23.63
2018-04-19T01:24:27.168Z,23.66
2018-04-19T01:25:27.163Z,23.66
2018-04-19T01:26:27.161Z,23.63
2018-04-19T01:27:48.158Z,23.66
2018-04-19T01:28:27.144Z,23.64
2018-04-19T01:29:27.141Z,23.64
2018-04-19T01:30:27.137Z,23.69
2018-04-19T01:31:27.132Z,23.67
2018-04-19T01:32:27.125Z,23.66
2018-04-19T01:33:48.134Z,23.67
2018-04-19T01:34:27.117Z,23.63
2018-04-19T01:35:27.109Z,23.62
2018-04-19T01:36:27.104Z,23.63
2018-04-19T01:37:27.098Z,23.63
2018-04-19T01:38:27.095Z,23.63
2018-04-19T01:39:48.095Z,23.63
2018-04-19T01:40:27.082Z,23.62
2018-04-19T01:41:27.078Z,23.63
2018-04-19T01:42:27.076Z,23.58
2018-04-19T01:43:27.065Z,23.66
2018-04-19T01:44:27.060Z,23.58
2018-04-19T01:45:48.069Z,23.58
2018-04-19T01:46:27.065Z,23.59
2018-04-19T01:47:27.046Z,23.58
2018-04-19T01:48:27.042Z,23.59
2018-04-19T01:49:27.036Z,23.66
2018-04-19T01:50:27.033Z,23.52
2018-04-19T01:51:48.037Z,23.56
2018-04-19T01:52:27.020Z,23.54
2018-04-19T01:53:27.014Z,23.59
2018-04-19T01:54:27.009Z,23.63
2018-04-19T01:55:27.004Z,23.56
2018-04-19T01:56:27.001Z,23.58
2018-04-19T01:57:48.002Z,23.56
2018-04-19T01:58:26.988Z,23.52
2018-04-19T01:59:26.981Z,23.58
2018-04-19T02:00:26.978Z,23.56
2018-04-19T02:01:26.970Z,23.51
2018-04-19T02:02:26.966Z,23.56
2018-04-19T02:03:47.967Z,23.49
2018-04-19T02:04:26.956Z,23.51
2018-04-19T02:05:26.953Z,23.56
2018-04-19T02:06:26.949Z,23.58
2018-04-19T02:07:26.939Z,23.59
2018-04-19T02:08:26.935Z,23.55
2018-04-19T02:09:47.941Z,23.54
2018-04-19T02:10:26.925Z,23.55
2018-04-19T02:11:26.916Z,23.55
2018-04-19T02:12:26.915Z,23.48
2018-04-19T02:13:26.909Z,23.52
2018-04-19T02:14:26.901Z,23.48
2018-04-19T02:15:47.908Z,23.51
2018-04-19T02:16:26.892Z,23.55
2018-04-19T02:17:26.891Z,23.51
2018-04-19T02:18:26.880Z,23.54
2018-04-19T02:19:26.877Z,23.54
2018-04-19T02:20:26.872Z,23.52
2018-04-19T02:21:47.880Z,23.51
2018-04-19T02:22:26.861Z,23.55
2018-04-19T02:23:26.858Z,23.48
2018-04-19T02:24:26.853Z,23.51
2018-04-19T02:25:26.843Z,23.51
2018-04-19T02:26:26.844Z,23.51
2018-04-19T02:27:47.838Z,23.47
2018-04-19T02:28:26.831Z,23.47
2018-04-19T02:29:26.822Z,23.48
2018-04-19T02:30:26.819Z,23.45
2018-04-19T02:31:26.814Z,23.51
2018-04-19T02:32:26.805Z,23.48
2018-04-19T02:33:47.809Z,23.47
2018-04-19T02:34:26.798Z,23.49
2018-04-19T02:35:26.798Z,23.42
2018-04-19T02:36:26.785Z,23.44
2018-04-19T02:37:26.780Z,23.45
2018-04-19T02:38:26.774Z,23.47
2018-04-19T02:39:47.774Z,23.45
2018-04-19T02:40:26.763Z,23.39
2018-04-19T02:41:26.758Z,23.45
2018-04-19T02:42:26.754Z,23.37
2018-04-19T02:43:26.749Z,23.47
2018-04-19T02:44:26.755Z,23.42
2018-04-19T02:45:47.745Z,23.45
2018-04-19T02:46:26.736Z,23.44
2018-04-19T02:47:26.725Z,23.40
2018-04-19T02:48:26.723Z,23.48
2018-04-19T02:49:26.722Z,23.37
2018-04-19T02:50:26.715Z,23.39
2018-04-19T02:51:47.706Z,23.48
2018-04-19T02:52:26.708Z,23.48
2018-04-19T02:53:26.700Z,23.48
2018-04-19T02:54:26.690Z,23.37
2018-04-19T02:55:26.683Z,23.47
2018-04-19T02:56:26.681Z,23.51
2018-04-19T02:57:47.680Z,23.45
2018-04-19T02:58:26.668Z,23.47
2018-04-19T02:59:26.659Z,23.42
2018-04-19T03:00:26.656Z,23.44
2018-04-19T03:01:26.657Z,23.42
2018-04-19T03:02:26.650Z,23.44
2018-04-19T03:03:47.645Z,23.34
2018-04-19T03:04:26.634Z,23.48
2018-04-19T03:05:26.630Z,23.40
2018-04-19T03:06:26.625Z,23.37
2018-04-19T03:07:26.614Z,23.42
2018-04-19T03:08:26.616Z,23.34
2018-04-19T03:09:47.608Z,23.45
2018-04-19T03:10:26.603Z,23.36
2018-04-19T03:11:26.597Z,23.36
2018-04-19T03:12:26.647Z,23.34
2018-04-19T03:13:26.586Z,23.39
2018-04-19T03:14:26.580Z,23.36
2018-04-19T03:15:47.582Z,23.34
2018-04-19T03:16:26.568Z,23.32
2018-04-19T03:17:26.564Z,23.32
2018-04-19T03:18:26.559Z,23.28
2018-04-19T03:19:26.560Z,23.32
2018-04-19T03:20:26.561Z,23.28
2018-04-19T03:21:47.553Z,23.36
2018-04-19T03:22:26.536Z,23.29
2018-04-19T03:23:26.530Z,23.29
2018-04-19T03:24:26.525Z,23.36
2018-04-19T03:25:26.519Z,23.28
2018-04-19T03:26:26.516Z,23.34
2018-04-19T03:27:47.520Z,23.33
2018-04-19T03:28:26.504Z,23.26
2018-04-19T03:29:26.504Z,23.37
2018-04-19T03:30:26.501Z,23.29
2018-04-19T03:31:26.490Z,23.32
2018-04-19T03:32:26.479Z,23.32
2018-04-19T03:33:47.484Z,23.25
2018-04-19T03:34:26.472Z,23.28
2018-04-19T03:35:26.519Z,23.29
2018-04-19T03:36:26.463Z,23.28
2018-04-19T03:37:26.456Z,23.42
2018-04-19T03:38:26.450Z,23.32
2018-04-19T03:39:47.457Z,23.32
2018-04-19T03:40:26.439Z,23.33
2018-04-19T03:41:26.434Z,23.26
2018-04-19T03:42:26.430Z,23.32
2018-04-19T03:43:26.425Z,23.29
2018-04-19T03:44:26.419Z,23.36
2018-04-19T03:45:47.421Z,23.40
2018-04-19T03:46:26.407Z,23.36
2018-04-19T03:47:26.411Z,23.47
2018-04-19T03:48:26.399Z,23.44
2018-04-19T03:49:26.386Z,23.34
2018-04-19T03:50:26.384Z,23.45
2018-04-19T03:51:47.387Z,23.40
2018-04-19T03:52:26.374Z,23.42
2018-04-19T03:53:26.371Z,23.45
2018-04-19T03:54:26.371Z,23.42
2018-04-19T03:55:26.358Z,23.47
2018-04-19T03:56:26.353Z,23.44
2018-04-19T03:57:47.361Z,23.47
2018-04-19T03:58:26.341Z,23.28
2018-04-19T03:59:26.334Z,23.25
2018-04-19T04:00:26.327Z,23.26
2018-04-19T04:01:26.322Z,23.28
2018-04-19T04:02:26.324Z,23.34
2018-04-19T04:03:47.315Z,23.44
2018-04-19T04:04:26.306Z,23.47
2018-04-19T04:05:26.298Z,23.47
2018-04-19T04:06:26.287Z,23.42
2018-04-19T04:07:26.283Z,23.48
2018-04-19T04:08:26.279Z,23.52
2018-04-19T04:09:47.282Z,23.55
2018-04-19T04:10:26.262Z,23.55
2018-04-19T04:11:26.260Z,23.69
2018-04-19T04:12:26.255Z,23.62
2018-04-19T04:13:26.245Z,23.64
2018-04-19T04:14:26.241Z,23.63
2018-04-19T04:15:47.239Z,23.69
2018-04-19T04:16:26.230Z,23.71
2018-04-19T04:17:26.219Z,23.74
2018-04-19T04:18:26.212Z,23.73
2018-04-19T04:19:26.210Z,23.73
2018-04-19T04:20:26.200Z,23.69
2018-04-19T04:21:47.198Z,23.73
2018-04-19T04:22:26.186Z,23.77
2018-04-19T04:23:26.179Z,23.62
2018-04-19T04:24:26.172Z,23.77
2018-04-19T04:25:26.165Z,23.66
2018-04-19T04:26:26.161Z,23.64
2018-04-19T04:27:47.165Z,23.73
2018-04-19T04:28:26.146Z,23.63
2018-04-19T04:29:26.139Z,23.70
2018-04-19T04:30:26.133Z,23.70
2018-04-19T04:31:26.125Z,23.62
2018-04-19T04:32:26.114Z,23.62
2018-04-19T04:33:47.113Z,23.71
2018-04-19T04:34:26.105Z,23.69
2018-04-19T04:35:26.096Z,23.71
2018-04-19T04:36:26.093Z,23.63
2018-04-19T04:37:26.083Z,23.76
2018-04-19T04:38:26.082Z,23.64
2018-04-19T04:39:47.074Z,23.66
2018-04-19T04:40:26.064Z,23.73
2018-04-19T04:41:26.057Z,23.64
2018-04-19T04:42:26.060Z,23.69
2018-04-19T04:43:26.043Z,23.63
2018-04-19T04:44:26.039Z,23.67
2018-04-19T04:45:47.040Z,23.67
2018-04-19T04:46:26.020Z,23.66
2018-04-19T04:47:26.014Z,23.70
2018-04-19T04:48:26.009Z,23.74
2018-04-19T04:49:26.000Z,23.63
2018-04-19T04:50:25.994Z,23.69
2018-04-19T04:51:47.000Z,23.67
2018-04-19T04:52:25.978Z,23.69
2018-04-19T04:53:25.975Z,23.63
2018-04-19T04:54:25.965Z,23.71
2018-04-19T04:55:25.959Z,23.64
2018-04-19T04:56:25.956Z,23.67
2018-04-19T04:57:46.952Z,23.69
2018-04-19T04:58:25.943Z,23.66
2018-04-19T04:59:25.935Z,23.74
2018-04-19T05:00:25.922Z,23.69
2018-04-19T05:01:25.917Z,23.71
2018-04-19T05:02:25.913Z,23.73
2018-04-19T05:03:46.910Z,23.71
2018-04-19T05:04:25.896Z,23.69
2018-04-19T05:05:25.888Z,23.64
2018-04-19T05:06:25.885Z,23.69
2018-04-19T05:07:25.874Z,23.66
2018-04-19T05:08:25.877Z,23.64
2018-04-19T05:09:46.869Z,23.67
2018-04-19T05:10:25.853Z,23.71
2018-04-19T05:11:25.849Z,23.73
2018-04-19T05:12:25.843Z,23.71
2018-04-19T05:13:25.833Z,23.70
2018-04-19T05:14:25.833Z,23.74
2018-04-19T05:15:46.825Z,23.74
2018-04-19T05:16:25.839Z,23.76
2018-04-19T05:17:25.806Z,23.74
2018-04-19T05:18:25.801Z,23.64
2018-04-19T05:19:25.792Z,23.67
2018-04-19T05:20:25.842Z,23.70
2018-04-19T05:21:46.783Z,23.74
2018-04-19T05:22:25.785Z,23.69
2018-04-19T05:23:25.768Z,23.76
2018-04-19T05:24:25.762Z,23.74
2018-04-19T05:25:25.749Z,23.73
2018-04-19T05:26:25.741Z,23.64
2018-04-19T05:27:46.756Z,23.73
2018-04-19T05:28:25.727Z,23.66
2018-04-19T05:29:25.723Z,23.69
2018-04-19T05:30:25.717Z,23.67
2018-04-19T05:31:25.707Z,23.66
2018-04-19T05:32:25.700Z,23.73
2018-04-19T05:33:46.700Z,23.69
2018-04-19T05:34:25.686Z,23.70
2018-04-19T05:35:25.679Z,23.63
2018-04-19T05:36:25.673Z,23.63
2018-04-19T05:37:25.677Z,23.67
2018-04-19T05:38:25.666Z,23.69
2018-04-19T05:39:46.667Z,23.62
2018-04-19T05:40:25.643Z,23.66
2018-04-19T05:41:25.634Z,23.73
2018-04-19T05:42:25.629Z,23.62
2018-04-19T05:43:25.629Z,23.73
2018-04-19T05:44:25.622Z,23.71
2018-04-19T05:45:46.617Z,23.71
2018-04-19T05:46:25.603Z,23.70
2018-04-19T05:47:25.594Z,23.76
2018-04-19T05:48:25.586Z,23.79
2018-04-19T05:49:25.586Z,23.82
2018-04-19T05:50:25.575Z,23.66
2018-04-19T05:51:46.571Z,23.73
2018-04-19T05:52:25.561Z,23.71
2018-04-19T05:53:25.552Z,23.69
2018-04-19T05:54:25.554Z,23.70
2018-04-19T05:55:25.536Z,23.71
2018-04-19T05:56:25.531Z,23.81
2018-04-19T05:57:46.531Z,23.73
2018-04-19T05:58:25.526Z,23.69
2018-04-19T05:59:25.511Z,23.70
2018-04-19T06:00:25.504Z,23.70
2018-04-19T06:01:25.497Z,23.69
2018-04-19T06:02:25.488Z,23.73
2018-04-19T06:03:46.486Z,23.73
2018-04-19T06:04:25.475Z,23.84
2018-04-19T06:05:25.467Z,23.73
2018-04-19T06:06:25.465Z,23.73
2018-04-19T06:07:25.453Z,23.73
2018-04-19T06:08:25.448Z,23.74
2018-04-19T06:09:46.447Z,23.76
2018-04-19T06:10:25.431Z,23.66
2018-04-19T06:11:25.425Z,23.71
2018-04-19T06:12:25.423Z,23.77
2018-04-19T06:13:25.412Z,23.84
2018-04-19T06:14:25.407Z,23.82
2018-04-19T06:15:46.404Z,23.79
2018-04-19T06:16:25.392Z,23.88
2018-04-19T06:17:25.384Z,23.82
2018-04-19T06:18:25.379Z,23.81
2018-04-19T06:19:25.370Z,23.79
2018-04-19T06:20:25.362Z,23.82
2018-04-19T06:21:46.370Z,23.82
2018-04-19T06:22:25.351Z,23.79
2018-04-19T06:23:25.344Z,23.92
2018-04-19T06:24:25.336Z,23.92
2018-04-19T06:25:25.332Z,23.85
2018-04-19T06:26:25.322Z,23.94
2018-04-19T06:27:46.320Z,23.92
2018-04-19T06:28:25.307Z,23.91
2018-04-19T06:29:25.302Z,23.94
2018-04-19T06:30:25.313Z,23.94
2018-04-19T06:31:25.287Z,23.95
2018-04-19T06:32:25.279Z,24.01
2018-04-19T06:33:46.280Z,24.04
2018-04-19T06:34:25.276Z,24.07
2018-04-19T06:35:25.262Z,24.01
2018-04-19T06:36:25.257Z,24.04
2018-04-19T06:37:25.247Z,24.06
2018-04-19T06:38:25.239Z,24.10
2018-04-19T06:39:46.239Z,24.14
2018-04-19T06:40:25.225Z,24.18
2018-04-19T06:41:25.220Z,24.14
2018-04-19T06:42:25.211Z,24.11
2018-04-19T06:43:25.205Z,24.13
2018-04-19T06:44:25.199Z,24.11
2018-04-19T06:45:46.198Z,24.14
2018-04-19T06:46:25.185Z,24.21
2018-04-19T06:47:25.178Z,24.13
2018-04-19T06:48:25.176Z,24.13
2018-04-19T06:49:25.176Z,24.19
2018-04-19T06:50:25.158Z,24.16
2018-04-19T06:51:46.157Z,24.18
2018-04-19T06:52:25.143Z,24.11
2018-04-19T06:53:25.144Z,24.16
2018-04-19T06:54:25.136Z,24.18
2018-04-19T06:55:25.122Z,24.19
2018-04-19T06:56:25.118Z,24.16
2018-04-19T06:57:46.118Z,24.18
2018-04-19T06:58:25.105Z,24.18
2018-04-19T06:59:25.099Z,24.28
2018-04-19T07:00:25.092Z,24.28
2018-04-19T07:01:25.088Z,24.26
2018-04-19T07:02:25.077Z,24.34
2018-04-19T07:03:46.077Z,24.34
2018-04-19T07:04:25.066Z,24.36
2018-04-19T07:05:25.059Z,24.44
2018-04-19T07:06:25.049Z,24.47
2018-04-19T07:07:25.045Z,24.44
2018-04-19T07:08:25.043Z,24.44
2018-04-19T07:09:46.037Z,24.53
2018-04-19T07:10:25.027Z,24.62
2018-04-19T07:11:25.020Z,24.61
2018-04-19T07:12:25.011Z,24.58
2018-04-19T07:13:25.006Z,24.69
2018-04-19T07:14:24.998Z,24.68
2018-04-19T07:15:46.000Z,24.75
2018-04-19T07:16:24.998Z,24.66
2018-04-19T07:17:24.982Z,24.85
2018-04-19T07:18:24.974Z,24.84
2018-04-19T07:19:24.967Z,24.92
2018-04-19T07:20:24.962Z,24.84
2018-04-19T07:21:45.962Z,24.97
2018-04-19T07:22:24.946Z,24.93
2018-04-19T07:23:24.942Z,24.96
2018-04-19T07:24:24.932Z,25.12
2018-04-19T07:25:24.927Z,25.07
2018-04-19T07:26:24.921Z,25.04
2018-04-19T07:27:45.918Z,24.97
2018-04-19T07:28:24.908Z,25.03
2018-04-19T07:29:24.905Z,25.11
2018-04-19T07:30:24.895Z,25.12
2018-04-19T07:31:24.896Z,25.18
2018-04-19T07:32:24.882Z,25.16
2018-04-19T07:33:45.881Z,25.24
2018-04-19T07:34:24.871Z,25.14
2018-04-19T07:35:24.863Z,25.18
2018-04-19T07:36:24.855Z,25.26
2018-04-19T07:37:24.853Z,25.29
2018-04-19T07:38:24.848Z,25.26
2018-04-19T07:39:45.843Z,25.24
2018-04-19T07:40:24.832Z,25.33
2018-04-19T07:41:24.830Z,25.40
2018-04-19T07:42:24.821Z,25.43
2018-04-19T07:43:24.814Z,25.40
2018-04-19T07:44:24.815Z,25.39
2018-04-19T07:45:45.812Z,25.46
2018-04-19T07:46:24.795Z,25.54
2018-04-19T07:47:24.787Z,25.54
2018-04-19T07:48:24.782Z,25.56
2018-04-19T07:49:24.786Z,25.54
2018-04-19T07:50:24.775Z,25.58
2018-04-19T07:51:45.770Z,25.61
2018-04-19T07:52:24.757Z,25.59
2018-04-19T07:53:24.754Z,25.59
2018-04-19T07:54:24.762Z,25.61
2018-04-19T07:55:24.740Z,25.68
2018-04-19T07:56:24.737Z,25.71
2018-04-19T07:57:45.747Z,25.73
2018-04-19T07:58:24.725Z,25.74
2018-04-19T07:59:24.717Z,25.81
2018-04-19T08:00:24.726Z,25.74
2018-04-19T08:01:24.711Z,25.81
2018-04-19T08:02:24.701Z,25.78
2018-04-19T08:03:45.702Z,25.81
2018-04-19T08:04:24.695Z,25.88
2018-04-19T08:05:24.730Z,25.92
2018-04-19T08:06:24.677Z,25.89
2018-04-19T08:07:24.671Z,25.89
2018-04-19T08:08:24.662Z,25.95
2018-04-19T08:09:45.664Z,25.93
2018-04-19T08:10:24.656Z,25.99
2018-04-19T08:11:24.737Z,26.01
2018-04-19T08:12:24.644Z,26.06
2018-04-19T08:13:24.636Z,25.96
2018-04-19T08:14:24.632Z,26.13
2018-04-19T08:15:45.629Z,25.96
2018-04-19T08:16:24.621Z,25.99
2018-04-19T08:17:24.614Z,26.01
2018-04-19T08:18:24.608Z,25.98
2018-04-19T08:19:24.610Z,26.15
2018-04-19T08:20:24.599Z,26.13
2018-04-19T08:21:45.597Z,26.10
2018-04-19T08:22:24.587Z,26.11
2018-04-19T08:23:24.579Z,26.26
2018-04-19T08:24:24.573Z,26.24
2018-04-19T08:25:24.566Z,26.24
2018-04-19T08:26:24.562Z,26.23
2018-04-19T08:27:45.560Z,26.24
2018-04-19T08:28:24.548Z,26.30
2018-04-19T08:29:24.546Z,26.31
2018-04-19T08:30:24.544Z,26.30
2018-04-19T08:31:24.533Z,26.30
2018-04-19T08:32:24.528Z,26.34
2018-04-19T08:33:45.531Z,26.48
2018-04-19T08:34:24.523Z,26.36
2018-04-19T08:35:24.520Z,26.39
2018-04-19T08:36:24.522Z,26.44
2018-04-19T08:37:24.504Z,26.49
2018-04-19T08:38:24.503Z,26.52
2018-04-19T08:39:45.498Z,26.52
2018-04-19T08:40:24.485Z,26.49
2018-04-19T08:41:24.492Z,26.52
2018-04-19T08:42:24.473Z,26.55
2018-04-19T08:43:24.468Z,26.60
2018-04-19T08:44:24.469Z,26.60
2018-04-19T08:45:45.493Z,26.66
2018-04-19T08:46:24.458Z,26.61
2018-04-19T08:47:24.448Z,26.68
2018-04-19T08:48:24.440Z,26.66
2018-04-19T08:49:24.437Z,26.67
2018-04-19T08:50:24.436Z,26.67
2018-04-19T08:51:45.441Z,26.63
2018-04-19T08:52:24.425Z,26.79
2018-04-19T08:53:24.419Z,26.79
2018-04-19T08:54:24.418Z,26.73
2018-04-19T08:55:24.408Z,26.76
2018-04-19T08:56:24.441Z,26.83
2018-04-19T08:57:45.406Z,26.83
2018-04-19T08:58:24.388Z,26.83
2018-04-19T08:59:24.387Z,26.89
2018-04-19T09:00:24.375Z,26.85
2018-04-19T09:01:24.372Z,26.82
2018-04-19T09:02:24.373Z,26.86
2018-04-19T09:03:45.365Z,26.82
2018-04-19T09:04:24.355Z,26.86
2018-04-19T09:05:24.351Z,26.91
2018-04-19T09:06:24.347Z,26.98
2018-04-19T09:07:24.342Z,27.01
2018-04-19T09:08:24.337Z,26.98
2018-04-19T09:09:45.338Z,27.01
2018-04-19T09:10:24.327Z,26.98
2018-04-19T09:11:24.323Z,27.03
2018-04-19T09:12:24.320Z,27.03
2018-04-19T09:13:24.311Z,27.11
2018-04-19T09:14:24.316Z,27.11
2018-04-19T09:15:45.312Z,27.08
2018-04-19T09:16:24.297Z,27.15
2018-04-19T09:17:24.291Z,27.16
2018-04-19T09:18:24.287Z,27.20
2018-04-19T09:19:24.326Z,27.25
2018-04-19T09:20:24.275Z,27.23
2018-04-19T09:21:45.281Z,27.26
2018-04-19T09:22:24.275Z,27.29
2018-04-19T09:23:24.261Z,27.16
2018-04-19T09:24:24.258Z,27.25
2018-04-19T09:25:24.251Z,27.20
2018-04-19T09:26:24.247Z,27.25
2018-04-19T09:27:45.247Z,27.30
2018-04-19T09:28:24.235Z,27.26
2018-04-19T09:29:24.240Z,27.30
2018-04-19T09:30:24.226Z,27.29
2018-04-19T09:31:24.226Z,27.26
2018-04-19T09:32:24.216Z,27.29
2018-04-19T09:33:45.220Z,27.37
2018-04-19T09:34:24.206Z,27.29
2018-04-19T09:35:24.201Z,27.34
2018-04-19T09:36:24.197Z,27.34
2018-04-19T09:37:24.194Z,27.38
2018-04-19T09:38:24.187Z,27.40
2018-04-19T09:39:45.188Z,27.40
2018-04-19T09:40:24.182Z,27.47
2018-04-19T09:41:24.177Z,27.47
2018-04-19T09:42:24.167Z,27.45
2018-04-19T09:43:24.165Z,27.48
2018-04-19T09:44:24.205Z,27.53
2018-04-19T09:45:45.161Z,27.44
2018-04-19T09:46:24.196Z,27.44
2018-04-19T09:47:24.142Z,27.55
2018-04-19T09:48:24.137Z,27.57
2018-04-19T09:49:24.138Z,27.53
2018-04-19T09:50:24.130Z,27.50
2018-04-19T09:51:45.132Z,27.53
2018-04-19T09:52:24.121Z,27.60
2018-04-19T09:53:24.121Z,27.55
2018-04-19T09:54:24.111Z,27.64
2018-04-19T09:55:24.135Z,27.67
2018-04-19T09:56:24.103Z,27.66
2018-04-19T09:57:45.102Z,27.71
2018-04-19T09:58:24.094Z,27.66
2018-04-19T09:59:24.086Z,27.71
2018-04-19T10:00:24.084Z,27.73
2018-04-19T10:01:24.081Z,27.66
2018-04-19T10:02:24.084Z,27.72
2018-04-19T10:03:45.072Z,27.68
2018-04-19T10:04:24.072Z,27.79
2018-04-19T10:05:24.059Z,27.76
2018-04-19T10:06:24.054Z,27.76
2018-04-19T10:07:24.051Z,27.78
2018-04-19T10:08:24.048Z,27.79
2018-04-19T10:09:45.050Z,27.78
2018-04-19T10:10:24.046Z,27.88
2018-04-19T10:11:24.037Z,27.76
2018-04-19T10:12:24.027Z,27.86
2018-04-19T10:13:24.024Z,27.78
2018-04-19T10:14:24.018Z,27.79
2018-04-19T10:15:45.026Z,27.85
2018-04-19T10:16:24.009Z,27.82
2018-04-19T10:17:24.010Z,27.81
2018-04-19T10:18:24.007Z,27.85
2018-04-19T10:19:23.993Z,27.86
2018-04-19T10:20:23.993Z,27.85
2018-04-19T10:21:44.995Z,27.93
2018-04-19T10:22:24.033Z,27.93
2018-04-19T10:23:23.977Z,27.94
2018-04-19T10:24:23.975Z,27.91
2018-04-19T10:25:23.970Z,27.97
2018-04-19T10:26:23.968Z,27.86
2018-04-19T10:27:44.967Z,27.86
2018-04-19T10:28:23.956Z,27.95
2018-04-19T10:29:23.953Z,27.98
2018-04-19T10:30:23.955Z,27.97
2018-04-19T10:31:23.952Z,27.94
2018-04-19T10:32:23.944Z,27.98
2018-04-19T10:33:44.989Z,28.03
2018-04-19T10:34:23.933Z,28.01
2018-04-19T10:35:23.929Z,27.90
2018-04-19T10:36:23.923Z,28.03
2018-04-19T10:37:23.919Z,27.95
2018-04-19T10:38:23.916Z,27.98
2018-04-19T10:39:44.916Z,28.00
2018-04-19T10:40:23.902Z,27.98
2018-04-19T10:41:23.902Z,28.00
2018-04-19T10:42:23.898Z,28.00
2018-04-19T10:43:23.894Z,28.01
2018-04-19T10:44:23.884Z,28.00
2018-04-19T10:45:44.888Z,28.01
2018-04-19T10:46:23.877Z,27.98
2018-04-19T10:47:23.873Z,28.10
2018-04-19T10:48:23.868Z,27.98
2018-04-19T10:49:23.871Z,28.06
2018-04-19T10:50:23.861Z,28.00
2018-04-19T10:51:44.863Z,27.97
2018-04-19T10:52:23.851Z,28.04
2018-04-19T10:53:23.848Z,28.04
2018-04-19T10:54:23.849Z,28.03
2018-04-19T10:55:23.838Z,27.98
2018-04-19T10:56:23.843Z,28.00
2018-04-19T10:57:44.839Z,28.01
2018-04-19T10:58:23.826Z,28.01
2018-04-19T10:59:23.822Z,28.04
2018-04-19T11:00:23.817Z,28.00
2018-04-19T11:01:23.814Z,28.00
2018-04-19T11:02:23.810Z,27.97
2018-04-19T11:03:44.813Z,28.03
2018-04-19T11:04:23.805Z,28.00
2018-04-19T11:05:23.802Z,27.97
2018-04-19T11:06:23.791Z,28.04
2018-04-19T11:07:23.786Z,28.06
2018-04-19T11:08:23.780Z,28.08
2018-04-19T11:09:44.788Z,28.06
2018-04-19T11:10:23.772Z,28.04
2018-04-19T11:11:23.769Z,28.00
2018-04-19T11:12:23.764Z,28.03
2018-04-19T11:13:23.759Z,27.97
2018-04-19T11:14:23.758Z,28.06
2018-04-19T11:15:44.758Z,28.00
2018-04-19T11:16:23.747Z,28.00
2018-04-19T11:17:23.743Z,28.06
2018-04-19T11:18:23.746Z,28.06
2018-04-19T11:19:23.732Z,27.95
2018-04-19T11:20:23.731Z,28.04
2018-04-19T11:21:44.734Z,28.06
2018-04-19T11:22:23.723Z,28.01
2018-04-19T11:23:23.718Z,28.09
2018-04-19T11:24:23.711Z,27.98
2018-04-19T11:25:23.709Z,28.04
2018-04-19T11:26:23.706Z,28.03
2018-04-19T11:27:44.704Z,28.04
2018-04-19T11:28:23.696Z,28.08
2018-04-19T11:29:23.690Z,28.01
2018-04-19T11:30:23.688Z,28.03
2018-04-19T11:31:23.682Z,28.06
2018-04-19T11:32:23.683Z,28.09
2018-04-19T11:33:44.680Z,28.03
2018-04-19T11:34:23.668Z,28.00
2018-04-19T11:35:23.664Z,27.98
2018-04-19T11:36:23.659Z,28.04
2018-04-19T11:37:23.655Z,28.01
2018-04-19T11:38:23.652Z,28.01
2018-04-19T11:39:44.659Z,28.00
2018-04-19T11:40:23.646Z,28.01
2018-04-19T11:41:23.639Z,27.95
2018-04-19T11:42:23.634Z,27.97
2018-04-19T11:43:23.629Z,27.98
2018-04-19T11:44:23.625Z,28.01
2018-04-19T11:45:44.628Z,28.03
2018-04-19T11:46:23.626Z,28.00
2018-04-19T11:47:23.611Z,27.98
2018-04-19T11:48:23.607Z,27.91
2018-04-19T11:49:23.604Z,27.90
2018-04-19T11:50:23.600Z,27.91
2018-04-19T11:51:44.602Z,27.90
2018-04-19T11:52:23.593Z,27.88
2018-04-19T11:53:23.585Z,27.85
2018-04-19T11:54:23.580Z,27.93
2018-04-19T11:55:23.582Z,27.78
2018-04-19T11:56:23.575Z,27.85
2018-04-19T11:57:44.583Z,27.82
2018-04-19T11:58:23.565Z,27.83
2018-04-19T11:59:23.561Z,27.81
2018-04-19T12:00:23.555Z,27.78
2018-04-19T12:01:23.553Z,27.78
2018-04-19T12:02:23.547Z,27.79
2018-04-19T12:03:44.549Z,27.85
2018-04-19T12:04:23.537Z,27.79
2018-04-19T12:05:23.535Z,27.86
2018-04-19T12:06:23.530Z,27.79
2018-04-19T12:07:23.530Z,27.71
2018-04-19T12:08:23.520Z,27.79
2018-04-19T12:09:44.524Z,27.68
2018-04-19T12:10:23.514Z,27.73
2018-04-19T12:11:23.508Z,27.72
2018-04-19T12:12:23.504Z,27.76
2018-04-19T12:13:23.496Z,27.68
2018-04-19T12:14:23.495Z,27.67
2018-04-19T12:15:44.500Z,27.67
2018-04-19T12:16:23.482Z,27.64
2018-04-19T12:17:23.490Z,27.67
2018-04-19T12:18:23.485Z,27.64
2018-04-19T12:19:23.475Z,27.61
2018-04-19T12:20:23.467Z,27.57
2018-04-19T12:21:44.475Z,27.58
2018-04-19T12:22:23.458Z,27.58
2018-04-19T12:23:23.453Z,27.57
2018-04-19T12:24:23.448Z,27.55
2018-04-19T12:25:23.444Z,27.61
2018-04-19T12:26:23.441Z,27.50
2018-04-19T12:27:44.442Z,27.53
2018-04-19T12:28:23.436Z,27.50
2018-04-19T12:29:23.426Z,27.55
2018-04-19T12:30:23.420Z,27.58
2018-04-19T12:31:23.417Z,27.57
2018-04-19T12:32:23.418Z,27.44
2018-04-19T12:33:44.417Z,27.43
2018-04-19T12:34:23.402Z,27.41
2018-04-19T12:35:23.396Z,27.50
2018-04-19T12:36:23.395Z,27.45
2018-04-19T12:37:23.393Z,27.50
2018-04-19T12:38:23.388Z,27.48
2018-04-19T12:39:44.385Z,27.45
2018-04-19T12:40:23.376Z,27.41
2018-04-19T12:41:23.373Z,27.34
2018-04-19T12:42:23.367Z,27.30
2018-04-19T12:43:23.360Z,27.38
2018-04-19T12:44:23.356Z,27.43
2018-04-19T12:45:44.360Z,27.30
2018-04-19T12:46:23.347Z,27.34
2018-04-19T12:47:23.342Z,27.35
2018-04-19T12:48:23.344Z,27.26
2018-04-19T12:49:23.334Z,27.34
2018-04-19T12:50:23.333Z,27.37
2018-04-19T12:51:44.330Z,27.26
2018-04-19T12:52:23.318Z,27.41